Time;durP1;ratioP1;P1;durP2;ratioP2;P2;SDS_P1;SDS_P2;PMS_P1;PMS_P2;Temp;Humidity;BMP_temperature;BMP_pressure;BME280_temperature;BME280_humidity;BME280_pressure;Samples;Min_cycle;Max_cycle;Signal;HPM_P1;HPM_P2
2022/02/09 00:04:37;;;;;;;6.42;4.80;;;;;;;10.71;65.83;99319.88;1755757;81;21592;-65
2022/02/09 00:09:24;;;;;;;7.03;4.85;;;;;;;10.69;65.65;99314.44;1784956;79;21078;-66
2022/02/09 00:17:26;;;;;;;6.25;4.67;;;;;;;10.65;65.37;99313.97;1820846;78;20982;-66
2022/02/09 00:22:20;;;;;;;5.67;4.45;;;;;;;10.63;65.21;99310.66;1821336;78;21076;-67
2022/02/09 00:33:05;;;;;;;7.17;4.53;;;;;;;10.59;64.89;99308.05;1789183;78;21177;-67
2022/02/09 00:40:14;;;;;;;7.10;5.03;;;;;;;10.54;64.69;99295.28;1816002;78;21018;-67
2022/02/09 01:39:16;;;;;;;6.40;4.85;;;;;;;10.30;63.62;99246.34;1808739;78;21534;-68
2022/02/09 01:57:11;;;;;;;5.73;4.40;;;;;;;10.26;63.35;99240.56;1827161;78;21038;-67
2022/02/09 01:59:39;;;;;;;6.10;4.60;;;;;;;10.25;63.30;99237.57;1792431;78;21012;-66
2022/02/09 02:02:06;;;;;;;5.78;4.40;;;;;;;10.24;63.26;99244.72;1804832;78;21030;-66
2022/02/09 02:04:33;;;;;;;6.42;4.42;;;;;;;10.23;63.21;99252.34;1788162;78;22308;-66
2022/02/09 02:07:05;;;;;;;5.33;4.72;;;;;;;10.23;63.19;99238.25;1818137;78;21009;-66
2022/02/09 02:09:33;;;;;;;5.97;4.78;;;;;;;10.22;63.15;99240.09;1804139;78;21003;-66
2022/02/09 02:12:10;;;;;;;6.83;4.72;;;;;;;10.23;63.11;99240.91;1808137;78;20955;-66
2022/02/09 02:17:09;;;;;;;6.67;4.72;;;;;;;10.21;63.03;99233.11;1802131;79;21906;-66
2022/02/09 02:19:40;;;;;;;7.22;5.35;;;;;;;10.21;62.98;99229.64;1802682;79;21542;-66
2022/02/09 02:22:29;;;;;;;6.45;4.75;;;;;;;10.20;62.95;99236.79;1790459;79;21003;-66
2022/02/09 02:37:36;;;;;;;5.55;4.03;;;;;;;10.19;62.81;99238.29;1797123;78;21042;-66
2022/02/09 02:40:10;;;;;;;6.30;4.92;;;;;;;10.19;62.77;99243.59;1804347;78;21004;-67
2022/02/09 02:47:43;;;;;;;6.42;4.78;;;;;;;10.18;62.67;99190.20;1767775;80;21014;-67
2022/02/09 03:09:18;;;;;;;6.25;4.50;;;;;;;10.53;67.92;99209.17;1773958;80;21109;-68
2022/02/09 03:14:19;;;;;;;7.60;5.15;;;;;;;10.67;68.93;99197.72;1795721;78;20975;-66
2022/02/09 03:16:45;;;;;;;6.75;4.35;;;;;;;10.75;69.52;99202.94;1797083;77;20990;-66
2022/02/09 03:24:42;;;;;;;5.90;5.05;;;;;;;11.15;70.12;99200.83;1815321;77;21037;-67
2022/02/09 03:27:23;;;;;;;6.25;4.45;;;;;;;11.21;70.32;99213.89;1805882;78;21030;-68
2022/02/09 03:46:24;;;;;;;6.20;4.72;;;;;;;11.60;70.81;99210.06;1817580;78;21007;-66
2022/02/09 03:48:58;;;;;;;6.80;5.00;;;;;;;11.65;70.73;99212.14;1782576;78;21146;-66
2022/02/09 03:51:33;;;;;;;7.22;5.15;;;;;;;11.68;70.72;99209.12;1825031;78;21065;-66
2022/02/09 03:56:29;;;;;;;6.10;4.42;;;;;;;11.74;70.74;99225.17;1814885;78;20978;-66
2022/02/09 03:58:53;;;;;;;5.80;4.60;;;;;;;11.84;70.69;99218.21;1808328;78;21533;-67
2022/02/09 04:01:22;;;;;;;6.17;4.97;;;;;;;11.99;70.50;99222.16;1805969;78;21893;-66
2022/02/09 04:03:48;;;;;;;7.05;4.90;;;;;;;12.02;70.38;99221.79;1764149;80;21073;-67
2022/02/09 04:06:15;;;;;;;5.58;5.00;;;;;;;12.04;70.39;99223.75;1770451;80;21045;-66
2022/02/09 04:08:50;;;;;;;5.92;4.78;;;;;;;12.07;70.30;99217.22;1799588;78;21064;-67
2022/02/09 04:11:18;;;;;;;5.70;4.87;;;;;;;12.09;70.23;99225.34;1818920;77;21124;-67
2022/02/09 04:19:18;;;;;;;5.65;4.95;;;;;;;12.15;70.07;99224.58;1778262;79;21019;-66
2022/02/09 04:38:10;;;;;;;6.40;4.60;;;;;;;12.27;69.90;99238.20;1815830;78;20970;-66
2022/02/09 04:43:35;;;;;;;4.75;4.28;;;;;;;12.29;69.87;99242.02;1729786;81;21686;-67
2022/02/09 04:50:58;;;;;;;5.45;4.95;;;;;;;12.33;69.82;99244.09;1815949;78;21044;-67
2022/02/09 04:54:17;;;;;;;5.17;4.67;;;;;;;12.34;69.82;99248.90;1819494;78;21215;-67
2022/02/09 04:56:01;;;;;;;6.67;4.80;;;;;;;12.35;69.79;99258.04;1788791;77;21005;-67
2022/02/09 04:58:40;;;;;;;4.35;3.87;;;;;;;12.37;69.74;99265.33;1795879;78;21077;-68
2022/02/09 05:01:04;;;;;;;5.50;4.85;;;;;;;12.38;69.66;99266.99;1735905;80;22001;-68
2022/02/09 05:24:59;;;;;;;6.72;4.60;;;;;;;12.62;69.00;99288.91;1803926;78;21022;-66
2022/02/09 05:27:22;;;;;;;5.70;4.62;;;;;;;12.62;69.09;99294.75;1806439;78;21014;-66
2022/02/09 05:29:43;;;;;;;5.72;5.15;;;;;;;12.63;69.11;99299.87;1806674;78;21048;-67
2022/02/09 05:32:09;;;;;;;5.05;4.25;;;;;;;12.63;69.09;99306.53;1806308;78;21114;-67
2022/02/09 05:34:36;;;;;;;6.15;5.25;;;;;;;12.64;69.09;99306.05;1745521;81;21328;-66
2022/02/09 05:37:04;;;;;;;4.80;4.30;;;;;;;12.64;69.08;99300.20;1767579;80;21557;-67
2022/02/09 05:39:30;;;;;;;6.12;4.45;;;;;;;12.65;69.12;99307.19;1797136;79;21548;-67
2022/02/09 05:41:57;;;;;;;5.22;4.72;;;;;;;12.66;69.18;99318.67;1807110;78;21517;-68
2022/02/09 05:44:24;;;;;;;5.30;4.55;;;;;;;12.67;69.26;99318.97;1812332;79;23201;-67
2022/02/09 05:51:51;;;;;;;6.85;5.12;;;;;;;12.71;69.64;99330.41;1811106;78;21456;-67
2022/02/09 05:56:45;;;;;;;5.95;4.72;;;;;;;12.73;69.85;99332.88;1800360;79;21131;-68
2022/02/09 06:01:38;;;;;;;6.97;4.60;;;;;;;12.76;70.04;99338.63;1795422;79;21008;-66
2022/02/09 06:04:05;;;;;;;7.33;4.47;;;;;;;12.77;70.27;99350.14;1803318;78;21002;-65
2022/02/09 06:06:31;;;;;;;6.53;4.58;;;;;;;12.85;70.28;99349.17;1806123;78;21574;-66
2022/02/09 06:09:00;;;;;;;7.85;5.35;;;;;;;12.97;70.23;99354.29;1809189;78;21002;-67
2022/02/09 06:11:37;;;;;;;6.35;4.60;;;;;;;12.97;70.46;99351.11;1809472;78;21025;-67
2022/02/09 06:21:50;;;;;;;8.43;5.00;;;;;;;13.02;70.80;99362.55;1825075;78;21219;-67
2022/02/09 06:24:16;;;;;;;6.35;4.83;;;;;;;13.03;70.90;99358.03;1827215;78;21540;-67
2022/02/09 06:26:43;;;;;;;9.00;4.90;;;;;;;13.04;70.91;99371.17;1815741;77;21592;-67
2022/02/09 06:29:09;;;;;;;7.55;4.65;;;;;;;13.06;70.81;99375.80;1806116;78;20978;-67
2022/02/09 06:31:37;;;;;;;7.53;5.00;;;;;;;13.06;70.64;99376.32;1813246;77;21065;-67
2022/02/09 06:34:04;;;;;;;7.80;5.10;;;;;;;13.08;70.58;99372.95;1816808;78;21972;-65
2022/02/09 06:36:35;;;;;;;9.08;4.97;;;;;;;13.09;70.61;99383.40;1822915;78;21501;-66
2022/02/09 06:39:06;;;;;;;5.85;4.85;;;;;;;13.09;70.54;99379.40;1823710;78;21029;-66
2022/02/09 06:41:28;;;;;;;7.58;5.20;;;;;;;13.10;70.48;99394.91;1804131;78;21663;-66
2022/02/09 06:43:54;;;;;;;6.78;5.12;;;;;;;13.10;70.37;99393.06;1820467;77;21061;-68
2022/02/09 06:46:21;;;;;;;8.13;5.10;;;;;;;13.12;70.33;99392.88;1811091;78;21115;-67
2022/02/09 06:48:49;;;;;;;7.20;4.53;;;;;;;13.12;70.34;99392.36;1819590;78;21061;-67
2022/02/09 06:51:19;;;;;;;5.65;4.67;;;;;;;13.13;70.30;99395.84;1753380;80;21014;-67
2022/02/09 06:54:31;;;;;;;7.78;4.78;;;;;;;13.14;70.35;99402.84;1765427;80;21511;-67
2022/02/09 06:56:22;;;;;;;4.95;4.17;;;;;;;13.17;70.22;99401.95;1749453;80;20985;-66
2022/02/09 06:58:56;;;;;;;6.05;4.53;;;;;;;13.32;69.70;99405.87;1778816;80;21831;-66
2022/02/09 07:01:11;;;;;;;5.90;4.85;;;;;;;13.33;69.75;99408.05;1784640;80;21029;-68
2022/02/09 07:03:37;;;;;;;9.13;4.67;;;;;;;13.32;69.72;99410.39;1756379;81;21589;-66
2022/02/09 07:06:06;;;;;;;6.67;4.80;;;;;;;13.32;69.61;99414.39;1782744;80;21580;-67
2022/02/09 07:08:33;;;;;;;6.25;4.55;;;;;;;13.32;69.61;99423.20;1779879;79;21037;-65
2022/02/09 07:11:00;;;;;;;5.22;4.08;;;;;;;13.34;69.77;99423.02;1787315;79;21150;-65
2022/02/09 07:13:26;;;;;;;5.05;4.33;;;;;;;13.33;69.56;99468.89;1813021;78;21298;-65
2022/02/09 07:15:54;;;;;;;5.40;4.22;;;;;;;13.32;68.61;99475.23;1818810;78;21026;-64
2022/02/09 07:18:23;;;;;;;5.78;4.90;;;;;;;13.31;68.28;99478.94;1808241;78;20994;-64
2022/02/09 07:23:28;;;;;;;5.70;4.45;;;;;;;13.26;67.93;99476.49;1820449;78;21334;-65
2022/02/09 07:28:36;;;;;;;6.78;4.53;;;;;;;13.17;68.01;99485.97;1814319;78;21426;-65
2022/02/09 07:31:04;;;;;;;5.33;4.53;;;;;;;13.12;68.06;99487.04;1810886;78;21760;-63
2022/02/09 07:33:30;;;;;;;5.15;4.08;;;;;;;13.09;68.10;99489.26;1807774;78;21076;-62
2022/02/09 07:35:56;;;;;;;4.92;4.35;;;;;;;13.05;68.17;99492.80;1817642;78;21128;-66
2022/02/09 07:38:23;;;;;;;6.40;4.95;;;;;;;13.01;68.18;99490.20;1749490;82;21490;-65
2022/02/09 07:40:56;;;;;;;6.75;4.80;;;;;;;12.96;68.22;99493.45;1794178;78;20986;-66
2022/02/09 07:43:25;;;;;;;5.37;4.12;;;;;;;12.92;68.26;99492.67;1798200;78;21588;-67
2022/02/09 07:51:11;;;;;;;5.40;4.37;;;;;;;12.73;68.32;99492.80;1808230;78;21126;-66
2022/02/09 07:53:26;;;;;;;5.55;3.83;;;;;;;12.73;68.35;99504.28;1802712;78;21025;-67
2022/02/09 07:55:52;;;;;;;4.75;4.10;;;;;;;12.70;68.34;99504.64;1816150;77;21008;-68
2022/02/09 07:58:18;;;;;;;5.08;3.85;;;;;;;12.65;68.31;99500.41;1800201;78;21060;-67
2022/02/09 08:00:45;;;;;;;5.70;4.80;;;;;;;12.63;68.32;99506.91;1810788;78;21130;-65
2022/02/09 08:03:12;;;;;;;5.90;4.28;;;;;;;12.59;68.27;99507.30;1815407;78;21025;-65
2022/02/09 08:05:39;;;;;;;7.90;5.05;;;;;;;12.56;68.27;99517.51;1819425;78;21009;-65
2022/02/09 08:08:05;;;;;;;4.35;3.87;;;;;;;12.53;68.26;99516.53;1813826;78;21021;-65
2022/02/09 08:10:45;;;;;;;4.85;4.22;;;;;;;12.50;68.24;99524.41;1808986;78;21548;-66
2022/02/09 08:26:53;;;;;;;4.92;4.30;;;;;;;12.30;68.15;99532.12;1758232;78;21603;-64
2022/02/09 08:34:11;;;;;;;4.65;3.90;;;;;;;12.23;68.11;99540.55;1804713;78;21377;-63
2022/02/09 08:36:38;;;;;;;4.87;3.65;;;;;;;12.20;68.09;99548.38;1806930;78;21557;-64
2022/02/09 08:39:06;;;;;;;4.45;4.00;;;;;;;12.18;68.06;99549.58;1807004;78;21128;-64
2022/02/09 08:41:33;;;;;;;6.28;4.28;;;;;;;12.15;68.02;99553.95;1788931;77;21045;-64
2022/02/09 08:43:59;;;;;;;4.55;3.67;;;;;;;12.14;68.01;99549.63;1800020;78;21048;-64
2022/02/09 08:46:26;;;;;;;4.45;4.00;;;;;;;12.12;67.97;99560.97;1800178;78;21020;-64
2022/02/09 08:48:52;;;;;;;4.70;3.80;;;;;;;12.11;67.94;99564.14;1819135;77;21104;-65
2022/02/09 08:51:22;;;;;;;4.25;3.65;;;;;;;12.10;67.91;99566.47;1816178;78;21843;-64
2022/02/09 08:53:47;;;;;;;4.65;3.52;;;;;;;12.09;67.87;99570.64;1755107;80;21126;-63
2022/02/09 08:56:14;;;;;;;3.75;3.35;;;;;;;12.08;67.83;99579.14;1751016;80;21047;-63
2022/02/09 08:58:43;;;;;;;5.65;4.15;;;;;;;12.06;67.81;99574.50;1773109;79;21026;-63
2022/02/09 09:01:10;;;;;;;5.90;4.10;;;;;;;12.07;67.79;99579.31;1808938;78;21071;-64
2022/02/09 09:03:47;;;;;;;4.90;3.90;;;;;;;12.05;67.74;99575.49;1801059;78;21068;-64
2022/02/09 09:06:08;;;;;;;4.45;3.70;;;;;;;12.05;67.72;99572.02;1808563;78;21059;-64
2022/02/09 09:08:44;;;;;;;4.95;3.80;;;;;;;12.04;67.69;99577.03;1804832;78;21076;-64
2022/02/09 09:19:13;;;;;;;4.50;4.10;;;;;;;12.04;67.56;99593.83;1789880;79;21044;-65
2022/02/09 10:02:50;;;;;;;4.70;3.20;;;;;;;12.28;66.29;99599.39;1753227;80;21047;-65
2022/02/09 10:31:34;;;;;;;3.50;3.08;;;;;;;12.55;65.56;99611.77;1761757;80;21054;-66
2022/02/09 10:33:37;;;;;;;3.62;3.00;;;;;;;12.58;65.48;99612.74;1716523;82;21101;-65
2022/02/09 10:36:15;;;;;;;4.28;3.25;;;;;;;12.62;65.42;99604.70;1756605;80;21034;-65
2022/02/09 10:38:43;;;;;;;3.58;3.15;;;;;;;12.68;65.43;99609.28;1759078;80;21857;-64
2022/02/09 10:41:29;;;;;;;3.72;2.77;;;;;;;12.76;65.46;99608.36;1766864;80;21069;-65
2022/02/09 10:44:15;;;;;;;4.97;3.02;;;;;;;12.84;65.25;99612.77;1764891;80;21558;-64
2022/02/09 10:46:55;;;;;;;2.77;2.30;;;;;;;12.90;64.87;99611.53;1754885;80;21058;-64
2022/02/09 10:49:26;;;;;;;3.10;2.55;;;;;;;12.94;64.65;99610.14;1772690;80;21093;-66
2022/02/09 10:52:03;;;;;;;3.80;2.58;;;;;;;13.00;64.48;99612.56;1756035;80;21074;-64
2022/02/09 10:54:25;;;;;;;3.60;2.85;;;;;;;13.05;64.42;99615.48;1754065;80;21569;-64
2022/02/09 10:56:58;;;;;;;3.08;2.55;;;;;;;13.13;64.26;99618.06;1755565;80;21531;-64
2022/02/09 10:59:28;;;;;;;2.85;2.55;;;;;;;13.22;64.19;99612.60;1768310;80;21066;-63
2022/02/09 11:01:57;;;;;;;3.30;2.75;;;;;;;13.29;64.03;99621.00;1763390;80;21042;-64
2022/02/09 11:04:24;;;;;;;3.60;2.80;;;;;;;13.36;63.99;99627.24;1743851;80;21146;-64
2022/02/09 11:06:50;;;;;;;2.80;2.45;;;;;;;13.43;63.96;99622.51;1766738;80;21026;-65
2022/02/09 11:09:19;;;;;;;3.50;2.50;;;;;;;13.50;63.96;99624.72;1731049;81;21152;-65
2022/02/09 11:11:45;;;;;;;3.35;2.87;;;;;;;13.61;64.02;99621.55;1796138;78;21506;-65
2022/02/09 11:14:23;;;;;;;2.52;2.30;;;;;;;13.69;64.15;99627.27;1773723;78;21017;-65
2022/02/09 11:16:54;;;;;;;2.83;2.52;;;;;;;13.76;64.10;99630.83;1757869;78;22018;-64
2022/02/09 11:19:44;;;;;;;4.22;3.27;;;;;;;13.83;63.99;99630.39;1772169;78;21012;-63
2022/02/09 11:22:10;;;;;;;4.00;2.98;;;;;;;13.88;63.99;99637.30;1765782;78;21136;-65
2022/02/09 11:24:43;;;;;;;3.67;2.77;;;;;;;13.92;63.84;99634.55;1773896;78;21017;-66
2022/02/09 11:27:54;;;;;;;3.47;2.80;;;;;;;14.01;63.61;99631.25;1821486;77;28089;-64
2022/02/09 11:30:46;;;;;;;3.58;2.90;;;;;;;14.03;63.46;99651.09;1771162;79;21032;-64
2022/02/09 11:33:07;;;;;;;2.75;2.50;;;;;;;14.08;63.48;99641.97;1737957;80;21121;-63
2022/02/09 11:35:32;;;;;;;3.05;2.65;;;;;;;14.11;63.47;99647.76;1739197;81;21028;-63
2022/02/09 11:41:07;;;;;;;3.02;2.62;;;;;;;14.20;63.23;99663.64;1732563;81;21080;-64
2022/02/09 11:43:38;;;;;;;2.87;2.45;;;;;;;14.24;63.20;99657.73;1732082;80;21655;-63
2022/02/09 11:52:03;;;;;;;3.35;2.27;;;;;;;14.44;63.35;99661.88;1733319;81;21552;-68
2022/02/09 12:08:52;;;;;;;6.97;4.08;;;;;;;15.13;68.99;99625.45;1723971;81;21113;-67
2022/02/09 12:11:39;;;;;;;5.55;3.90;;;;;;;15.24;69.47;99624.88;1726313;82;21558;-67
2022/02/09 12:14:21;;;;;;;8.33;4.62;;;;;;;15.35;69.68;99630.14;1714305;81;21091;-69
2022/02/09 12:17:12;;;;;;;6.80;3.87;;;;;;;15.46;69.78;99634.91;1723920;81;21122;-70
2022/02/09 12:19:27;;;;;;;5.78;3.95;;;;;;;15.59;69.64;99640.81;1733076;81;21295;-72
2022/02/09 12:22:04;;;;;;;5.92;3.80;;;;;;;15.71;69.49;99631.66;1730879;80;21057;-68
2022/02/09 12:24:31;;;;;;;7.70;4.03;;;;;;;15.86;69.46;99646.24;1736260;81;21089;-71
2022/02/09 12:27:11;;;;;;;7.37;3.75;;;;;;;15.95;69.63;99646.33;1749263;80;21145;-68
2022/02/09 12:29:40;;;;;;;6.25;3.58;;;;;;;16.03;69.67;99638.60;1756211;80;21576;-67
2022/02/09 12:32:20;;;;;;;4.65;3.47;;;;;;;16.18;69.46;99639.22;1741276;82;21077;-67
2022/02/09 12:35:07;;;;;;;3.98;3.30;;;;;;;16.38;69.12;99647.26;1742956;82;21108;-69
2022/02/09 12:37:40;;;;;;;7.95;3.67;;;;;;;16.50;68.99;99657.64;1757947;80;21522;-70
2022/02/09 12:40:15;;;;;;;6.60;3.70;;;;;;;16.64;68.84;99651.73;1728537;81;21256;-67
2022/02/09 12:42:52;;;;;;;6.70;3.65;;;;;;;16.82;68.33;99659.14;1738744;82;21071;-67
2022/02/09 12:45:26;;;;;;;8.58;3.45;;;;;;;17.08;67.46;99667.63;1738368;82;21100;-68
2022/02/09 12:47:59;;;;;;;6.08;3.47;;;;;;;17.48;66.44;99663.42;1740058;82;21065;-68
2022/02/09 12:50:32;;;;;;;;;;;;;;;17.90;65.39;99671.56;1737865;82;21121;-66
2022/02/09 12:52:59;;;;;;;5.50;3.65;;;;;;;18.27;64.13;99676.03;1728792;82;21141;-65
2022/02/09 12:55:27;;;;;;;6.45;3.08;;;;;;;18.60;63.09;99660.10;1733581;81;21067;-65
2022/02/09 12:58:09;;;;;;;4.95;3.27;;;;;;;18.88;62.38;99680.32;1756662;80;21100;-65
2022/02/09 13:00:46;;;;;;;7.60;3.58;;;;;;;19.00;61.37;99670.97;1750959;80;21100;-64
2022/02/09 13:03:16;;;;;;;5.22;3.20;;;;;;;18.99;60.88;99685.49;1746230;81;21016;-65
2022/02/09 13:05:45;;;;;;;5.67;3.35;;;;;;;18.90;60.63;99685.48;1761060;79;21885;-65
2022/02/09 13:08:20;;;;;;;4.03;3.55;;;;;;;18.84;60.65;99677.25;1757405;80;21083;-65
2022/02/09 13:14:49;;;;;;;4.78;3.22;;;;;;;18.70;60.44;99678.42;1754003;79;21065;-66
2022/02/09 13:25:27;;;;;;;3.98;2.65;;;;;;;18.74;60.12;99686.88;1736875;82;22215;-67
2022/02/09 14:15:03;;;;;;;3.30;2.75;;;;;;;17.58;61.87;99754.80;1736981;81;21368;-66
2022/02/09 14:55:17;;;;;;;4.50;2.50;;;;;;;17.05;60.75;99798.73;1739202;82;21363;-65
2022/02/09 14:57:30;;;;;;;3.70;2.70;;;;;;;17.00;60.74;99792.66;1725935;82;21038;-65
2022/02/09 15:05:27;;;;;;;5.28;3.02;;;;;;;16.86;60.88;99809.79;1733498;81;21049;-65
2022/02/09 15:07:45;;;;;;;4.55;2.47;;;;;;;16.81;60.98;99812.26;1727198;80;22352;-65
2022/02/09 15:10:19;;;;;;;4.12;2.72;;;;;;;16.74;61.06;99813.58;1740616;81;21070;-65
2022/02/09 15:15:25;;;;;;;4.10;2.90;;;;;;;16.62;61.21;99832.16;1675927;81;21093;-66
2022/02/09 15:18:15;;;;;;;5.62;3.17;;;;;;;16.57;61.27;99827.09;1734157;82;21040;-64
2022/02/09 15:22:41;;;;;;;3.17;2.47;;;;;;;16.45;61.42;99825.54;1733918;82;21104;-65
2022/02/09 15:25:16;;;;;;;3.45;2.60;;;;;;;16.39;61.50;99832.54;1739240;82;21069;-66
2022/02/09 15:27:36;;;;;;;5.05;2.85;;;;;;;16.33;61.54;99827.18;1742787;81;21070;-65
2022/02/09 15:30:05;;;;;;;3.20;2.62;;;;;;;16.30;61.52;99831.92;1753786;80;21573;-65
2022/02/09 15:32:37;;;;;;;4.80;2.90;;;;;;;16.24;61.60;99836.73;1724407;81;21088;-65
2022/02/09 15:40:23;;;;;;;4.00;2.50;;;;;;;16.11;61.68;99846.10;1753657;81;21022;-64
2022/02/09 15:56:31;;;;;;;3.95;2.80;;;;;;;15.79;62.01;99862.36;1752965;81;21002;-65
2022/02/09 16:09:47;;;;;;;3.98;2.77;;;;;;;15.52;62.34;99899.14;1753072;81;21006;-65
2022/02/09 16:20:36;;;;;;;4.97;2.75;;;;;;;15.33;62.61;99911.89;1754511;81;21056;-63
2022/02/09 16:22:31;;;;;;;5.75;3.05;;;;;;;15.29;62.70;99913.30;1737687;80;21009;-64
2022/02/09 16:33:22;;;;;;;4.85;3.30;;;;;;;15.16;62.98;99922.05;1749267;81;21038;-63
2022/02/09 16:46:36;;;;;;;3.87;3.00;;;;;;;14.99;63.27;99933.55;1744319;81;21076;-62
2022/02/09 16:49:16;;;;;;;4.08;3.02;;;;;;;14.96;63.32;99929.91;1747325;81;21066;-63
2022/02/09 16:51:45;;;;;;;5.15;3.72;;;;;;;14.93;63.34;99944.52;1743474;81;21470;-62
2022/02/09 17:21:20;;;;;;;7.20;3.50;;;;;;;14.72;64.42;99996.14;1716459;83;21087;-65
2022/02/09 17:23:47;;;;;;;5.65;3.67;;;;;;;14.70;64.52;99992.01;1732303;82;21061;-65
2022/02/09 17:26:15;;;;;;;3.47;3.08;;;;;;;14.66;64.56;99986.69;1716228;82;21078;-64
2022/02/09 17:28:46;;;;;;;5.37;3.67;;;;;;;14.62;64.60;99996.96;1722818;82;21423;-66
2022/02/09 17:31:37;;;;;;;5.83;3.50;;;;;;;14.59;64.55;99995.16;1748645;81;21217;-66
2022/02/09 17:34:36;;;;;;;4.53;3.60;;;;;;;14.54;64.45;99995.68;1743246;81;21240;-65
2022/02/09 17:55:42;;;;;;;5.53;3.62;;;;;;;14.07;63.89;99999.10;1749040;81;21057;-65
2022/02/09 17:57:54;;;;;;;5.45;3.77;;;;;;;14.02;63.83;100004.67;1745802;82;21786;-65
2022/02/09 18:00:20;;;;;;;4.28;3.45;;;;;;;13.95;63.77;100008.08;1720287;82;21653;-66
2022/02/09 18:02:52;;;;;;;5.53;3.10;;;;;;;13.90;63.73;100001.63;1723200;82;20990;-66
2022/02/09 18:05:23;;;;;;;6.78;3.87;;;;;;;13.86;63.68;100007.84;1719904;82;21085;-66
2022/02/09 18:07:58;;;;;;;5.15;3.50;;;;;;;13.81;63.62;100002.72;1726863;82;21118;-65
2022/02/09 18:10:42;;;;;;;5.58;3.60;;;;;;;13.76;63.58;100001.95;1735652;82;22566;-66
2022/02/09 18:29:01;;;;;;;5.72;4.15;;;;;;;13.49;63.10;100004.20;1741071;82;21065;-65
2022/02/09 18:31:23;;;;;;;6.60;3.87;;;;;;;13.47;63.05;100008.06;1741277;82;21482;-66
2022/02/09 18:34:05;;;;;;;4.55;4.00;;;;;;;13.42;63.01;100001.09;1731771;81;21006;-66
2022/02/09 18:44:26;;;;;;;4.17;3.60;;;;;;;13.27;62.91;99994.34;1741164;81;21012;-66
2022/02/09 19:03:28;;;;;;;3.85;3.30;;;;;;;13.01;62.80;100016.88;1649242;86;21163;-66
2022/02/09 19:05:54;;;;;;;5.60;3.62;;;;;;;12.96;62.76;100010.76;1689774;81;21557;-67
2022/02/09 19:08:56;;;;;;;5.83;3.45;;;;;;;12.93;62.74;100008.95;1722202;82;21108;-67
2022/02/09 19:30:20;;;;;;;6.15;3.62;;;;;;;12.74;62.56;100001.71;1724075;81;21199;-70
2022/02/09 19:32:59;;;;;;;5.67;4.08;;;;;;;12.74;63.16;100006.22;1736979;82;21030;-71
2022/02/09 19:48:19;;;;;;;4.97;3.50;;;;;;;12.67;64.26;100016.77;1694655;81;21020;-66
2022/02/09 19:55:40;;;;;;;4.37;3.52;;;;;;;12.64;63.91;100018.44;1748267;80;22479;-66
2022/02/09 19:58:08;;;;;;;6.62;3.58;;;;;;;12.63;63.80;100017.27;1748379;81;21053;-68
2022/02/09 20:00:37;;;;;;;4.40;3.42;;;;;;;12.61;63.72;100022.77;1749522;81;21084;-68
2022/02/09 20:03:05;;;;;;;4.55;3.87;;;;;;;12.61;63.59;100009.45;1728680;83;21005;-66
2022/02/09 20:05:34;;;;;;;5.12;4.25;;;;;;;12.59;63.50;100012.31;1729018;82;21024;-69
2022/02/09 20:08:03;;;;;;;5.62;3.83;;;;;;;12.58;63.40;100011.15;1731045;81;21936;-68
2022/02/09 20:10:30;;;;;;;4.37;3.65;;;;;;;12.57;63.29;100000.14;1751092;81;21064;-66
2022/02/09 20:12:56;;;;;;;5.75;3.60;;;;;;;12.56;63.25;100005.98;1750007;81;21061;-64
2022/02/09 20:15:25;;;;;;;5.17;3.60;;;;;;;12.55;63.15;99996.31;1752450;81;21028;-64
2022/02/09 20:17:52;;;;;;;5.15;3.15;;;;;;;12.55;63.07;99992.83;1738893;80;21040;-70
2022/02/09 20:20:25;;;;;;;3.87;3.12;;;;;;;12.53;62.99;99998.33;1752472;81;21030;-68
2022/02/09 20:22:51;;;;;;;5.05;3.17;;;;;;;12.52;62.95;99991.87;1740024;80;21324;-68
2022/02/09 20:25:18;;;;;;;4.37;3.37;;;;;;;12.51;62.87;99987.53;1749078;80;21552;-64
2022/02/09 20:27:47;;;;;;;4.95;3.83;;;;;;;12.50;62.81;99984.55;1734919;81;21086;-65
2022/02/09 20:30:17;;;;;;;4.47;3.37;;;;;;;12.49;62.76;99985.03;1733181;81;21046;-65
2022/02/09 20:32:48;;;;;;;4.40;3.50;;;;;;;12.49;62.68;99980.21;1725646;82;21116;-66
2022/02/09 20:35:13;;;;;;;4.45;3.17;;;;;;;12.48;62.62;99990.05;1747396;82;21668;-64
2022/02/09 20:37:43;;;;;;;4.40;3.30;;;;;;;12.48;62.58;99985.23;1727463;81;21567;-68
2022/02/09 20:40:13;;;;;;;6.25;3.80;;;;;;;12.46;62.54;99985.40;1735386;82;21018;-67
2022/02/09 20:42:38;;;;;;;4.75;3.62;;;;;;;12.44;62.50;99986.08;1745514;81;21513;-62
2022/02/09 20:45:18;;;;;;;4.37;3.20;;;;;;;12.44;62.45;99973.23;1737457;81;21131;-65
2022/02/09 20:47:37;;;;;;;5.10;3.85;;;;;;;12.42;62.42;99981.42;1720500;82;21100;-66
2022/02/09 20:50:05;;;;;;;6.05;3.92;;;;;;;12.42;62.39;99977.91;1738966;81;21065;-67
2022/02/09 20:52:32;;;;;;;4.87;3.50;;;;;;;12.41;62.33;99981.08;1728949;82;21010;-70
2022/02/09 20:54:59;;;;;;;3.62;3.15;;;;;;;12.40;62.32;99976.77;1743910;81;21047;-69
2022/02/09 20:57:29;;;;;;;4.62;3.20;;;;;;;12.38;62.27;99976.09;1745164;81;21752;-68
2022/02/09 21:00:02;;;;;;;5.85;3.47;;;;;;;12.38;62.24;99980.08;1743776;81;21061;-67
2022/02/09 21:05:03;;;;;;;7.40;4.25;;;;;;;12.36;62.17;99977.63;1729292;81;21159;-68
2022/02/09 21:07:37;;;;;;;5.55;4.00;;;;;;;12.35;62.13;99985.78;1729992;81;21649;-68
2022/02/09 21:10:03;;;;;;;5.55;3.52;;;;;;;12.34;62.08;99987.63;1740071;82;21215;-67
2022/02/09 21:12:36;;;;;;;5.45;3.87;;;;;;;12.34;62.09;99992.95;1740137;82;21070;-70
2022/02/09 21:57:23;;;;;;;4.62;3.80;;;;;;;12.12;61.58;99960.41;1729888;81;21014;-75
2022/02/09 22:16:32;;;;;;;4.58;3.80;;;;;;;12.04;61.50;99939.14;1740797;81;21893;-74
2022/02/09 22:26:40;;;;;;;5.58;3.62;;;;;;;11.98;61.48;99953.47;1740068;81;21002;-75
2022/02/09 22:29:09;;;;;;;6.33;3.45;;;;;;;11.98;61.47;99950.80;1735401;81;21149;-75
2022/02/09 22:47:59;;;;;;;5.55;3.87;;;;;;;11.94;61.35;99936.69;1745165;82;21093;-73
2022/02/09 22:55:25;;;;;;;5.90;4.05;;;;;;;11.91;61.29;99932.52;1682515;81;21114;-75
2022/02/09 22:57:55;;;;;;;4.50;3.62;;;;;;;11.91;61.29;99921.05;1745484;81;21283;-76
2022/02/09 23:00:50;;;;;;;5.17;3.67;;;;;;;11.90;61.29;99925.55;1743758;81;21086;-76
2022/02/09 23:03:21;;;;;;;5.12;3.83;;;;;;;11.90;61.26;99920.70;1726204;81;21064;-75
2022/02/09 23:05:56;;;;;;;5.50;4.45;;;;;;;11.88;61.23;99916.87;1723398;81;21041;-75
2022/02/09 23:08:38;;;;;;;5.08;4.00;;;;;;;11.88;61.20;99921.34;1727774;82;21145;-77
2022/02/09 23:13:25;;;;;;;5.20;4.05;;;;;;;11.87;61.14;99914.38;1722957;82;21057;-74
2022/02/09 23:16:13;;;;;;;7.28;4.70;;;;;;;11.86;61.14;99913.56;1730660;81;21062;-75
2022/02/09 23:24:05;;;;;;;5.78;4.12;;;;;;;11.84;61.09;99911.57;1750020;82;21054;-74
2022/02/09 23:26:54;;;;;;;5.95;4.35;;;;;;;11.83;61.08;99909.89;1739399;81;21101;-75
2022/02/09 23:52:49;;;;;;;5.35;4.00;;;;;;;11.84;61.07;99906.73;1737488;82;21066;-73
2022/02/09 23:58:57;;;;;;;6.65;4.42;;;;;;;11.74;60.95;99885.16;1771394;80;21491;-74
